Terminal Aerodrome Forecast
Issued by NWS Oklahoma City, OK

Home | Current Version | Previous Version | Text Only | Print | Product List | Glossary On
Versions: 1 2 3 4 5 6 7 8 9 10 11 12 13 14 15 16 17 18 19 20 21 22 23 24 25 26 27 28 29 30 31 32 33 34 35 36 37 38
000
FTUS44 KOUN 021122
TAFOUN
TAF
KOUN 021122Z 0212/0312 01005KT P6SM SCT022 BKN250
     FM021700 16005KT P6SM BKN022
     FM022300 15007KT P6SM BKN015
     FM030900 18015KT 4SM BR OVC007=

USA.gov is the U.S. government's official web portal to all federal, state and local government web resources and services.